Airfield :
LOGIN :

Register | Disclaimer

   EN    FR    IT 

 










Legend :    VFR   Marginal VFR   IFR   Intensive IFR   Very Intensive IFR
Visi :
Ceiling :
>= 8 km
>= 3000ft
5 to 8 km
1000 to 3000 ft
1500m to 5 km
500 to 1000 ft
800 to 1500m
200 to 500 ft
< 800m
< 200 ft
Symbols :   Thunderstorms  Fog  Heavy snow  Heavy precipitations  Wind > 20 kt
SIGMETs :     Misc.  Thunderstorms  Icing  Turbulence  Mountain Waves  Volcanic Ashes






- Airport Elevation : 18 ft
- IATA code : AJA


LFKJ - Ajaccio

CURRENT METAR :
  • 080930Z AUTO 04004KT 010V070 9999 BKN088 OVC120 12/07 Q1011 NOSIG

EXPIRED METARs :
  • 080900Z AUTO 04003KT 9999 FEW066 OVC088 11/07 Q1011 NOSIG
  • 080830Z AUTO 06003KT 030V090 9999 SCT066 BKN080 BKN100 11/06 Q1011 NOSIG
  • 080800Z AUTO 05004KT 9999 FEW064 SCT100 BKN130 09/06 Q1011 NOSIG
  • 080730Z AUTO 05006KT 9999 FEW001 BKN130 08/05 Q1011 NOSIG
  • 080700Z AUTO 04005KT 9999 FEW066 BKN090 OVC130 08/05 Q1011 NOSIG

TAF TAF LFKJ
Valid from the 08 at 09:00 until the 09 at 09:00 UTC


080800Z 0809/0909 05005KT 9999 FEW025 BKN060 BKN200
BECMG 0810/0813 24004KT
BECMG 0817/0819 05006KT
ATIS : +33 4 95 23 59 85



MET'MAP, your aeronautical weather chart ! - Copyright ORBIFLY December 2007 - Disclaimer

ORBIFLY MET'MAP TEAM :

Programming & Development : Alexandra Zaïnal
Original concept : Baudouin d'Aumeries
Technical & hardware support : Manuel Goepfert
Assistance : Marc-Olivier Méhu




SOURCES & CREDITS :

   NOAA